createdAt,value
2019-03-25T00:01:33.981Z,97336.26
2019-03-25T00:04:06.470Z,97333.57
2019-03-25T00:06:38.753Z,97329.53
2019-03-25T00:09:11.688Z,97328.93
2019-03-25T00:11:44.270Z,97335.52
2019-03-25T00:14:16.560Z,97320.16
2019-03-25T00:16:49.179Z,97322.25
2019-03-25T00:19:21.469Z,97314.86
2019-03-25T00:21:54.310Z,97310.36
2019-03-25T00:24:37.998Z,97314.03
2019-03-25T00:27:00.943Z,97311.88
2019-03-25T00:29:33.212Z,97309.49
2019-03-25T00:32:05.470Z,97307.54
2019-03-25T00:34:39.188Z,97307.86
2019-03-25T00:37:11.971Z,97299.96
2019-03-25T00:39:44.322Z,97302.53
2019-03-25T00:42:16.713Z,97300.45
2019-03-25T00:44:49.173Z,97296.67
2019-03-25T00:47:21.307Z,97287.72
2019-03-25T00:49:53.764Z,97292.84
2019-03-25T00:52:26.054Z,97287.70
2019-03-25T00:54:58.123Z,97288.78
2019-03-25T00:57:30.489Z,97287.34
2019-03-25T01:00:02.767Z,97293.78
2019-03-25T01:02:35.672Z,97287.64
2019-03-25T01:05:08.632Z,97281.13
2019-03-25T01:07:41.295Z,97274.64
2019-03-25T01:10:14.053Z,97268.70
2019-03-25T01:12:46.269Z,97268.69
2019-03-25T01:15:18.661Z,97273.45
2019-03-25T01:17:50.925Z,97266.43
2019-03-25T01:20:23.309Z,97253.28
2019-03-25T01:22:56.233Z,97254.75
2019-03-25T01:25:28.674Z,97259.00
2019-03-25T01:28:00.995Z,97258.86
2019-03-25T01:30:33.787Z,97253.22
2019-03-25T01:33:06.285Z,97250.16
2019-03-25T01:35:38.464Z,97248.45
2019-03-25T01:38:10.660Z,97249.00
2019-03-25T01:40:43.990Z,97243.37
2019-03-25T01:43:16.323Z,97244.09
2019-03-25T01:45:48.909Z,97236.58
2019-03-25T01:48:20.996Z,97231.09
2019-03-25T01:50:53.301Z,97233.30
2019-03-25T01:53:25.505Z,97233.01
2019-03-25T01:55:57.733Z,97223.29
2019-03-25T01:58:29.947Z,97231.33
2019-03-25T02:01:02.742Z,97232.64
2019-03-25T02:03:34.863Z,97228.83
2019-03-25T02:06:07.123Z,97230.12
2019-03-25T02:08:39.345Z,97224.91
2019-03-25T02:11:12.780Z,97223.16
2019-03-25T02:13:44.974Z,97218.01
2019-03-25T02:16:17.558Z,97214.09
2019-03-25T02:18:50.058Z,97208.05
2019-03-25T02:21:22.349Z,97210.78
2019-03-25T02:23:54.686Z,97206.93
2019-03-25T02:26:26.874Z,97204.79
2019-03-25T02:28:59.145Z,97197.16
2019-03-25T02:31:31.516Z,97198.58
2019-03-25T02:34:03.891Z,97197.75
2019-03-25T02:36:36.445Z,97199.71
2019-03-25T02:39:08.947Z,97201.16
2019-03-25T02:41:41.229Z,97191.75
2019-03-25T02:44:13.463Z,97187.58
2019-03-25T02:46:45.741Z,97182.82
2019-03-25T02:49:18.109Z,97186.73
2019-03-25T02:51:50.268Z,97186.73
2019-03-25T02:54:22.469Z,97181.59
2019-03-25T02:56:54.735Z,97178.58
2019-03-25T02:59:27.016Z,97187.73
2019-03-25T03:01:59.249Z,97182.79
2019-03-25T03:04:32.726Z,97184.78
2019-03-25T03:07:05.318Z,97180.54
2019-03-25T03:09:37.720Z,97183.17
2019-03-25T03:12:10.089Z,97174.72
2019-03-25T03:14:42.327Z,97180.11
2019-03-25T03:17:14.614Z,97184.38
2019-03-25T03:19:46.656Z,97176.52
2019-03-25T03:22:20.005Z,97176.91
2019-03-25T03:24:52.233Z,97181.96
2019-03-25T03:27:24.618Z,97170.58
2019-03-25T03:29:56.811Z,97170.16
2019-03-25T03:32:29.215Z,97173.15
2019-03-25T03:35:01.585Z,97166.70
2019-03-25T03:37:33.752Z,97174.83
2019-03-25T03:40:06.608Z,97166.56
2019-03-25T03:42:39.515Z,97165.28
2019-03-25T03:45:12.420Z,97168.56
2019-03-25T03:47:44.583Z,97156.91
2019-03-25T03:50:26.991Z,97162.02
2019-03-25T03:52:59.134Z,97157.20
2019-03-25T03:55:34.816Z,97155.84
2019-03-25T03:58:07.647Z,97161.69
2019-03-25T04:00:39.889Z,97153.17
2019-03-25T04:03:12.329Z,97162.58
2019-03-25T04:05:44.526Z,97168.52
2019-03-25T04:08:16.732Z,97168.08
2019-03-25T04:10:48.854Z,97177.86
2019-03-25T04:13:21.625Z,97173.64
2019-03-25T04:15:54.601Z,97170.89
2019-03-25T04:18:26.853Z,97182.81
2019-03-25T04:20:59.201Z,97187.67
2019-03-25T04:23:31.693Z,97188.75
2019-03-25T04:26:04.031Z,97181.11
2019-03-25T04:28:36.389Z,97173.65
2019-03-25T04:31:08.465Z,97183.02
2019-03-25T04:33:40.706Z,97185.35
2019-03-25T04:36:12.872Z,97186.01
2019-03-25T04:38:45.054Z,97180.83
2019-03-25T04:41:17.203Z,97188.16
2019-03-25T04:43:49.540Z,97187.45
2019-03-25T04:46:21.606Z,97189.55
2019-03-25T04:48:53.719Z,97190.84
2019-03-25T04:51:25.931Z,97191.41
2019-03-25T04:53:58.142Z,97196.53
2019-03-25T04:56:39.016Z,97201.66
2019-03-25T04:59:05.524Z,97196.38
2019-03-25T05:01:37.750Z,97201.88
2019-03-25T05:04:09.888Z,97203.31
2019-03-25T05:06:42.034Z,97201.03
2019-03-25T05:09:14.532Z,97200.53
2019-03-25T05:11:46.938Z,97202.59
2019-03-25T05:14:18.942Z,97197.05
2019-03-25T05:16:50.895Z,97197.61
2019-03-25T05:19:22.947Z,97198.83
2019-03-25T05:21:54.945Z,97205.28
2019-03-25T05:24:27.134Z,97198.77
2019-03-25T05:26:59.460Z,97200.52
2019-03-25T05:29:31.641Z,97196.73
2019-03-25T05:32:03.804Z,97201.04
2019-03-25T05:34:35.927Z,97203.78
2019-03-25T05:37:08.047Z,97196.67
2019-03-25T05:39:40.102Z,97197.19
2019-03-25T05:42:12.522Z,97197.19
2019-03-25T05:44:44.493Z,97195.01
2019-03-25T05:47:17.785Z,97194.53
2019-03-25T05:49:49.911Z,97197.13
2019-03-25T05:52:21.920Z,97206.81
2019-03-25T05:54:54.050Z,97212.55
2019-03-25T05:57:26.035Z,97214.89
2019-03-25T05:59:58.194Z,97221.98
2019-03-25T06:02:30.445Z,97217.02
2019-03-25T06:05:02.669Z,97216.20
2019-03-25T06:07:34.766Z,97207.59
2019-03-25T06:10:07.624Z,97209.14
2019-03-25T06:12:39.591Z,97213.39
2019-03-25T06:15:12.303Z,97221.16
2019-03-25T06:17:44.559Z,97216.62
2019-03-25T06:20:17.103Z,97208.77
2019-03-25T06:22:49.072Z,97217.59
2019-03-25T06:25:21.438Z,97214.86
2019-03-25T06:27:53.524Z,97216.62
2019-03-25T06:30:25.770Z,97212.63
2019-03-25T06:32:57.920Z,97222.27
2019-03-25T06:35:29.985Z,97206.11
2019-03-25T06:38:02.391Z,97215.66
2019-03-25T06:40:35.737Z,97218.14
2019-03-25T06:43:08.328Z,97227.30
2019-03-25T06:45:40.775Z,97223.47
2019-03-25T06:48:12.817Z,97220.08
2019-03-25T06:50:44.861Z,97213.40
2019-03-25T06:53:17.045Z,97214.09
2019-03-25T06:55:49.098Z,97226.91
2019-03-25T06:58:21.665Z,97226.02
2019-03-25T07:00:54.169Z,97219.77
2019-03-25T07:03:26.245Z,97226.52
2019-03-25T07:05:58.411Z,97229.66
2019-03-25T07:08:30.812Z,97227.53
2019-03-25T07:11:03.130Z,97231.50
2019-03-25T07:13:35.584Z,97235.74
2019-03-25T07:16:08.147Z,97239.64
2019-03-25T07:18:40.343Z,97226.55
2019-03-25T07:21:13.384Z,97234.87
2019-03-25T07:23:45.607Z,97229.23
2019-03-25T07:26:17.841Z,97236.98
2019-03-25T07:28:49.882Z,97227.88
2019-03-25T07:31:22.063Z,97228.16
2019-03-25T07:33:54.517Z,97234.73
2019-03-25T07:36:26.808Z,97232.37
2019-03-25T07:39:00.232Z,97237.59
2019-03-25T07:41:32.519Z,97235.00
2019-03-25T07:44:04.740Z,97229.39
2019-03-25T07:46:36.725Z,97233.00
2019-03-25T07:49:08.795Z,97242.35
2019-03-25T07:51:40.907Z,97239.55
2019-03-25T07:54:13.237Z,97238.16
2019-03-25T07:56:45.857Z,97230.30
2019-03-25T07:59:20.094Z,97227.33
2019-03-25T08:01:52.211Z,97228.30
2019-03-25T08:04:24.200Z,97222.14
2019-03-25T08:06:56.258Z,97218.28
2019-03-25T08:09:28.495Z,97211.26
2019-03-25T08:12:00.961Z,97227.94
2019-03-25T08:14:33.237Z,97224.91
2019-03-25T08:17:05.722Z,97217.88
2019-03-25T08:19:37.800Z,97218.09
2019-03-25T08:22:09.946Z,97213.05
2019-03-25T08:24:42.081Z,97216.06
2019-03-25T08:27:14.287Z,97212.88
2019-03-25T08:29:46.343Z,97206.42
2019-03-25T08:32:18.685Z,97197.38
2019-03-25T08:34:50.864Z,97202.52
2019-03-25T08:37:23.171Z,97197.63
2019-03-25T08:39:55.551Z,97194.58
2019-03-25T08:42:27.768Z,97184.73
2019-03-25T08:44:59.739Z,97203.03
2019-03-25T08:47:32.304Z,97187.20
2019-03-25T08:50:04.491Z,97190.09
2019-03-25T08:52:39.839Z,97177.25
2019-03-25T08:55:11.100Z,97179.09
2019-03-25T08:57:43.521Z,97183.88
2019-03-25T09:00:17.046Z,97173.94
2019-03-25T09:02:49.154Z,97175.38
2019-03-25T09:05:21.645Z,97173.16
2019-03-25T09:07:53.871Z,97170.72
2019-03-25T09:10:26.064Z,97162.04
2019-03-25T09:12:58.270Z,97151.47
2019-03-25T09:15:30.591Z,97160.45
2019-03-25T09:18:02.722Z,97165.62
2019-03-25T09:20:34.935Z,97156.99
2019-03-25T09:23:07.471Z,97165.19
2019-03-25T09:25:39.555Z,97156.61
2019-03-25T09:28:23.757Z,97153.33
2019-03-25T09:31:22.330Z,97163.05
2019-03-25T09:33:55.836Z,97158.70
2019-03-25T09:36:28.151Z,97163.89
2019-03-25T09:39:00.296Z,97164.16
2019-03-25T09:41:32.554Z,97168.80
2019-03-25T09:44:05.238Z,97167.98
2019-03-25T09:46:37.310Z,97174.24
2019-03-25T09:49:09.588Z,97162.11
2019-03-25T09:51:41.846Z,97167.08
2019-03-25T09:54:14.339Z,97163.30
2019-03-25T09:56:46.582Z,97185.27
2019-03-25T09:59:18.759Z,97175.40
2019-03-25T10:01:50.843Z,97166.44
2019-03-25T10:04:22.940Z,97177.32
2019-03-25T10:06:55.180Z,97184.10
2019-03-25T10:09:27.333Z,97177.44
2019-03-25T10:11:59.757Z,97181.20
2019-03-25T10:14:31.764Z,97184.25
2019-03-25T10:17:04.125Z,97183.46
2019-03-25T10:19:36.857Z,97174.31
2019-03-25T10:22:09.136Z,97172.73
2019-03-25T10:24:41.136Z,97173.89
2019-03-25T10:27:13.732Z,97177.91
2019-03-25T10:29:46.059Z,97167.01
2019-03-25T10:32:19.380Z,97167.80
2019-03-25T10:34:51.379Z,97165.97
2019-03-25T10:37:23.546Z,97176.80
2019-03-25T10:39:55.789Z,97175.47
2019-03-25T10:42:27.896Z,97174.29
2019-03-25T10:45:00.389Z,97167.80
2019-03-25T10:47:32.855Z,97156.47
2019-03-25T10:50:05.705Z,97155.73
2019-03-25T10:52:37.845Z,97158.68
2019-03-25T10:55:11.017Z,97145.41
2019-03-25T10:57:43.290Z,97150.67
2019-03-25T11:00:16.343Z,97156.20
2019-03-25T11:02:48.547Z,97157.87
2019-03-25T11:05:20.741Z,97150.52
2019-03-25T11:07:52.885Z,97145.46
2019-03-25T11:10:25.390Z,97131.66
2019-03-25T11:12:57.851Z,97122.62
2019-03-25T11:15:30.101Z,97115.19
2019-03-25T11:18:02.159Z,97113.84
2019-03-25T11:20:34.573Z,97124.85
2019-03-25T11:23:06.807Z,97114.94
2019-03-25T11:25:39.098Z,97115.73
2019-03-25T11:28:12.291Z,97116.61
2019-03-25T11:30:54.659Z,97120.25
2019-03-25T11:33:27.272Z,97110.53
2019-03-25T11:35:59.962Z,97129.63
2019-03-25T11:38:32.273Z,97132.70
2019-03-25T11:41:04.573Z,97120.06
2019-03-25T11:43:36.647Z,97140.39
2019-03-25T11:46:08.857Z,97148.73
2019-03-25T11:48:41.263Z,97156.26
2019-03-25T11:51:13.411Z,97152.50
2019-03-25T11:53:45.615Z,97130.68
2019-03-25T11:56:17.727Z,97124.38
2019-03-25T11:58:49.781Z,97120.34
2019-03-25T12:01:21.918Z,97118.22
2019-03-25T12:03:54.043Z,97142.44
2019-03-25T12:06:26.262Z,97154.77
2019-03-25T12:08:58.518Z,97162.06
2019-03-25T12:11:30.886Z,97159.32
2019-03-25T12:14:03.082Z,97170.64
2019-03-25T12:16:35.328Z,97167.38
2019-03-25T12:19:07.835Z,97168.93
2019-03-25T12:21:40.166Z,97167.22
2019-03-25T12:24:12.240Z,97175.78
2019-03-25T12:26:44.496Z,97163.55
2019-03-25T12:29:16.734Z,97177.38
2019-03-25T12:31:49.038Z,97171.41
2019-03-25T12:34:21.620Z,97177.20
2019-03-25T12:36:53.982Z,97168.12
2019-03-25T12:39:26.108Z,97164.87
2019-03-25T12:41:58.275Z,97165.48
2019-03-25T12:44:30.422Z,97146.87
2019-03-25T12:47:03.253Z,97142.38
2019-03-25T12:49:35.828Z,97134.80
2019-03-25T12:52:08.240Z,97141.63
2019-03-25T12:54:40.276Z,97154.16
2019-03-25T12:57:12.321Z,97149.94
2019-03-25T12:59:44.514Z,97144.05
2019-03-25T13:02:16.598Z,97139.60
2019-03-25T13:04:48.734Z,97141.38
2019-03-25T13:07:20.785Z,97127.00
2019-03-25T13:09:52.847Z,97124.08
2019-03-25T13:12:25.337Z,97111.67
2019-03-25T13:14:57.402Z,97104.80
2019-03-25T13:17:29.628Z,97106.55
2019-03-25T13:20:01.775Z,97099.30
2019-03-25T13:22:34.083Z,97098.58
2019-03-25T13:25:06.713Z,97096.08
2019-03-25T13:27:38.882Z,97093.56
2019-03-25T13:30:13.038Z,97083.13
2019-03-25T13:32:45.846Z,97085.39
2019-03-25T13:35:17.947Z,97082.36
2019-03-25T13:37:50.933Z,97110.02
2019-03-25T13:40:23.169Z,97105.45
2019-03-25T13:42:55.446Z,97114.08
2019-03-25T13:45:27.725Z,97116.43
2019-03-25T13:47:59.788Z,97119.42
2019-03-25T13:50:31.885Z,97118.41
2019-03-25T13:53:04.347Z,97132.39
2019-03-25T13:55:36.388Z,97132.84
2019-03-25T13:58:08.429Z,97125.05
2019-03-25T14:00:44.211Z,97121.52
2019-03-25T14:03:16.744Z,97114.13
2019-03-25T14:05:48.913Z,97101.80
2019-03-25T14:08:21.556Z,97098.73
2019-03-25T14:10:53.754Z,97092.08
2019-03-25T14:13:26.606Z,97083.67
2019-03-25T14:15:59.098Z,97089.02
2019-03-25T14:18:31.160Z,97099.69
2019-03-25T14:21:03.282Z,97099.72
2019-03-25T14:23:35.383Z,97099.27
2019-03-25T14:26:07.695Z,97111.73
2019-03-25T14:28:39.778Z,97116.36
2019-03-25T14:31:11.826Z,97159.98
2019-03-25T14:33:43.879Z,97174.99
2019-03-25T14:36:15.924Z,97190.22
2019-03-25T14:38:48.322Z,97197.11
2019-03-25T14:41:20.486Z,97222.91
2019-03-25T14:43:52.539Z,97231.41
2019-03-25T14:46:24.783Z,97238.80
2019-03-25T14:48:56.903Z,97237.16
2019-03-25T14:51:29.719Z,97224.68
2019-03-25T14:54:01.786Z,97217.97
2019-03-25T14:56:34.191Z,97209.38
2019-03-25T14:59:06.574Z,97221.63
2019-03-25T15:01:38.625Z,97223.70
2019-03-25T15:04:11.038Z,97198.77
2019-03-25T15:06:43.097Z,97199.36
2019-03-25T15:09:15.323Z,97195.63
2019-03-25T15:11:47.859Z,97193.66
2019-03-25T15:14:19.934Z,97198.90
2019-03-25T15:16:52.088Z,97197.38
2019-03-25T15:19:24.507Z,97200.23
2019-03-25T15:21:56.858Z,97189.84
2019-03-25T15:24:29.383Z,97209.70
2019-03-25T15:27:01.826Z,97206.15
2019-03-25T15:29:33.978Z,97199.19
2019-03-25T15:32:06.231Z,97203.70
2019-03-25T15:34:38.720Z,97207.50
2019-03-25T15:37:10.853Z,97211.23
2019-03-25T15:39:46.951Z,97223.45
2019-03-25T15:42:18.673Z,97222.23
2019-03-25T15:44:50.669Z,97227.61
2019-03-25T15:47:23.202Z,97230.33
2019-03-25T15:49:55.173Z,97219.00
2019-03-25T15:52:27.410Z,97214.31
2019-03-25T15:54:59.636Z,97210.42
2019-03-25T15:57:31.798Z,97225.16
2019-03-25T16:00:04.195Z,97222.98
2019-03-25T16:02:36.874Z,97218.63
2019-03-25T16:05:09.079Z,97220.30
2019-03-25T16:07:41.465Z,97215.75
2019-03-25T16:10:16.364Z,97207.72
2019-03-25T16:12:49.015Z,97201.31
2019-03-25T16:15:42.407Z,97195.41
2019-03-25T16:18:39.622Z,97199.58
2019-03-25T16:21:12.537Z,97200.17
2019-03-25T16:23:44.803Z,97194.28
2019-03-25T16:26:16.785Z,97187.44
2019-03-25T16:28:48.835Z,97190.03
2019-03-25T16:31:20.989Z,97184.08
2019-03-25T16:33:54.467Z,97195.45
2019-03-25T16:36:26.816Z,97197.17
2019-03-25T16:38:58.955Z,97196.45
2019-03-25T16:41:31.011Z,97203.14
2019-03-25T16:44:04.249Z,97207.27
2019-03-25T16:46:36.665Z,97214.92
2019-03-25T16:49:08.899Z,97226.87
2019-03-25T16:51:41.041Z,97245.05
2019-03-25T16:54:14.034Z,97268.54
2019-03-25T16:56:46.080Z,97275.06
2019-03-25T16:59:19.456Z,97285.52
2019-03-25T17:01:51.638Z,97293.88
2019-03-25T17:04:24.656Z,97292.63
2019-03-25T17:06:56.901Z,97287.87
2019-03-25T17:09:29.699Z,97306.97
2019-03-25T17:12:01.951Z,97318.79
2019-03-25T17:14:34.114Z,97338.27
2019-03-25T17:17:06.240Z,97347.56
2019-03-25T17:19:38.352Z,97345.97
2019-03-25T17:22:10.507Z,97343.88
2019-03-25T17:24:42.562Z,97343.95
2019-03-25T17:27:14.660Z,97337.64
2019-03-25T17:29:46.626Z,97343.52
2019-03-25T17:32:18.667Z,97340.12
2019-03-25T17:34:50.714Z,97340.20
2019-03-25T17:37:22.759Z,97343.88
2019-03-25T17:39:55.076Z,97342.68
2019-03-25T17:42:27.198Z,97337.23
2019-03-25T17:44:59.744Z,97338.84
2019-03-25T17:47:31.888Z,97344.25
2019-03-25T17:50:04.629Z,97346.66
2019-03-25T17:52:37.847Z,97341.22
2019-03-25T17:55:10.507Z,97348.29
2019-03-25T17:57:43.129Z,97364.25
2019-03-25T18:00:17.573Z,97364.64
2019-03-25T18:02:49.666Z,97376.59
2019-03-25T18:05:21.969Z,97377.78
2019-03-25T18:07:54.352Z,97381.05
2019-03-25T18:10:26.428Z,97386.00
2019-03-25T18:12:59.047Z,97388.20
2019-03-25T18:15:31.411Z,97401.48
2019-03-25T18:18:03.496Z,97400.24
2019-03-25T18:20:36.147Z,97409.44
2019-03-25T18:23:08.790Z,97421.31
2019-03-25T18:25:41.568Z,97418.55
2019-03-25T18:28:14.090Z,97424.44
2019-03-25T18:30:46.325Z,97425.50
2019-03-25T18:33:18.458Z,97436.80
2019-03-25T18:35:50.827Z,97436.84
2019-03-25T18:38:23.214Z,97439.13
2019-03-25T18:40:55.343Z,97435.92
2019-03-25T18:43:27.637Z,97436.15
2019-03-25T18:45:59.756Z,97441.95
2019-03-25T18:48:31.847Z,97442.07
2019-03-25T18:51:04.297Z,97447.09
2019-03-25T18:53:36.652Z,97447.31
2019-03-25T18:56:09.783Z,97450.00
2019-03-25T18:58:42.102Z,97451.06
2019-03-25T19:01:14.609Z,97461.83
2019-03-25T19:03:46.703Z,97465.22
2019-03-25T19:06:19.011Z,97475.50
2019-03-25T19:08:52.566Z,97485.06
2019-03-25T19:11:31.021Z,97486.09
2019-03-25T19:13:58.436Z,97484.67
2019-03-25T19:16:30.490Z,97484.37
2019-03-25T19:19:03.000Z,97486.70
2019-03-25T19:21:35.149Z,97487.97
2019-03-25T19:24:07.586Z,97481.48
2019-03-25T19:26:39.649Z,97494.58
2019-03-25T19:29:12.087Z,97499.09
2019-03-25T19:31:44.241Z,97496.10
2019-03-25T19:34:16.425Z,97503.77
2019-03-25T19:36:48.475Z,97494.22
2019-03-25T19:39:20.827Z,97507.48
2019-03-25T19:41:53.007Z,97518.30
2019-03-25T19:44:25.456Z,97515.64
2019-03-25T19:46:57.658Z,97527.46
2019-03-25T19:49:30.126Z,97526.75
2019-03-25T19:52:02.772Z,97533.17
2019-03-25T19:54:34.995Z,97525.99
2019-03-25T19:57:07.277Z,97532.47
2019-03-25T19:59:39.310Z,97545.50
2019-03-25T20:02:18.802Z,97540.66
2019-03-25T20:04:45.299Z,97551.38
2019-03-25T20:07:17.452Z,97555.50
2019-03-25T20:09:49.672Z,97553.40
2019-03-25T20:12:21.601Z,97560.16
2019-03-25T20:14:54.058Z,97552.07
2019-03-25T20:17:26.609Z,97562.87
2019-03-25T20:19:58.694Z,97565.31
2019-03-25T20:22:31.266Z,97562.77
2019-03-25T20:25:03.534Z,97574.14
2019-03-25T20:27:35.834Z,97577.25
2019-03-25T20:30:08.865Z,97576.43
2019-03-25T20:32:40.989Z,97582.94
2019-03-25T20:35:13.312Z,97580.92
2019-03-25T20:37:45.556Z,97588.91
2019-03-25T20:40:18.084Z,97596.28
2019-03-25T20:42:50.324Z,97597.22
2019-03-25T20:45:22.421Z,97600.45
2019-03-25T20:47:54.375Z,97604.47
2019-03-25T20:50:27.308Z,97605.06
2019-03-25T20:53:00.879Z,97601.03
2019-03-25T20:55:33.063Z,97605.66
2019-03-25T20:58:05.289Z,97608.34
2019-03-25T21:00:49.350Z,97610.69
2019-03-25T21:03:22.828Z,97599.27
2019-03-25T21:05:54.996Z,97605.11
2019-03-25T21:08:27.576Z,97612.25
2019-03-25T21:10:59.622Z,97617.55
2019-03-25T21:13:31.721Z,97618.21
2019-03-25T21:16:03.907Z,97619.06
2019-03-25T21:18:35.982Z,97625.89
2019-03-25T21:21:08.291Z,97622.38
2019-03-25T21:23:40.417Z,97628.45
2019-03-25T21:26:12.569Z,97630.27
2019-03-25T21:28:44.722Z,97626.74
2019-03-25T21:31:16.753Z,97632.73
2019-03-25T21:33:48.778Z,97631.69
2019-03-25T21:36:21.079Z,97643.41
2019-03-25T21:38:53.090Z,97651.81
2019-03-25T21:41:25.846Z,97648.89
2019-03-25T21:43:57.961Z,97648.92
2019-03-25T21:46:29.947Z,97649.84
2019-03-25T21:49:02.331Z,97653.20
2019-03-25T21:51:34.357Z,97655.03
2019-03-25T21:54:06.536Z,97649.39
2019-03-25T21:56:38.592Z,97661.02
2019-03-25T21:59:10.778Z,97663.63
2019-03-25T22:01:42.848Z,97666.97
2019-03-25T22:04:15.261Z,97670.36
2019-03-25T22:06:47.363Z,97664.83
2019-03-25T22:09:19.400Z,97665.19
2019-03-25T22:11:51.778Z,97671.89
2019-03-25T22:14:23.745Z,97672.38
2019-03-25T22:16:57.000Z,97676.89
2019-03-25T22:19:29.068Z,97682.04
2019-03-25T22:22:01.391Z,97678.40
2019-03-25T22:24:33.615Z,97682.28
2019-03-25T22:27:06.132Z,97683.47
2019-03-25T22:29:38.205Z,97691.85
2019-03-25T22:32:10.455Z,97691.34
2019-03-25T22:34:42.528Z,97687.35
2019-03-25T22:37:14.585Z,97690.81
2019-03-25T22:39:46.815Z,97683.98
2019-03-25T22:42:19.953Z,97683.66
2019-03-25T22:44:52.025Z,97684.60
2019-03-25T22:47:24.921Z,97695.30
2019-03-25T22:49:57.037Z,97698.05
2019-03-25T22:52:29.178Z,97689.98
2019-03-25T22:55:01.234Z,97699.94
2019-03-25T22:57:33.735Z,97707.11
2019-03-25T23:00:06.988Z,97708.38
2019-03-25T23:02:40.929Z,97715.85
2019-03-25T23:05:13.174Z,97718.20
2019-03-25T23:07:45.337Z,97715.26
2019-03-25T23:10:17.839Z,97718.81
2019-03-25T23:12:50.077Z,97732.47
2019-03-25T23:15:22.170Z,97724.73
2019-03-25T23:17:54.312Z,97744.33
2019-03-25T23:20:26.341Z,97742.78
2019-03-25T23:22:58.404Z,97742.06
2019-03-25T23:25:30.412Z,97747.48
2019-03-25T23:28:02.586Z,97749.75
2019-03-25T23:30:34.753Z,97760.85
2019-03-25T23:33:07.257Z,97759.95
2019-03-25T23:35:39.480Z,97764.18
2019-03-25T23:38:11.746Z,97757.81
2019-03-25T23:40:43.910Z,97760.62
2019-03-25T23:43:15.960Z,97751.86
2019-03-25T23:45:48.260Z,97754.41
2019-03-25T23:48:20.223Z,97757.83
2019-03-25T23:50:52.362Z,97753.08
2019-03-25T23:53:24.537Z,97758.45
2019-03-25T23:55:56.589Z,97770.38
2019-03-25T23:58:28.679Z,97762.19
